createdAt,value
2024-05-09T00:01:04.033Z,10.24
2024-05-09T00:03:10.810Z,10.19
2024-05-09T00:05:13.893Z,10.14
2024-05-09T00:07:18.431Z,10.08
2024-05-09T00:09:22.930Z,10.05
2024-05-09T00:11:27.482Z,9.88
2024-05-09T00:13:31.970Z,9.80
2024-05-09T00:15:37.113Z,9.77
2024-05-09T00:17:44.573Z,9.73
2024-05-09T00:19:49.479Z,9.56
2024-05-09T00:21:54.066Z,9.66
2024-05-09T00:23:58.937Z,9.67
2024-05-09T00:26:03.396Z,9.57
2024-05-09T00:28:08.677Z,9.61
2024-05-09T00:30:17.430Z,9.51
2024-05-09T00:32:26.052Z,9.46
2024-05-09T00:34:33.564Z,9.54
2024-05-09T00:36:39.567Z,9.52
2024-05-09T00:38:45.492Z,9.53
2024-05-09T00:40:50.081Z,9.46
2024-05-09T00:42:54.575Z,9.44
2024-05-09T00:44:59.263Z,9.41
2024-05-09T00:47:03.714Z,9.37
2024-05-09T00:49:08.416Z,9.37
2024-05-09T00:51:15.516Z,9.37
2024-05-09T00:53:21.135Z,9.14
2024-05-09T00:55:26.358Z,9.31
2024-05-09T00:57:30.971Z,9.29
2024-05-09T00:59:36.248Z,9.25
2024-05-09T01:01:40.939Z,9.17
2024-05-09T01:03:46.630Z,9.20
2024-05-09T01:05:52.767Z,9.13
2024-05-09T01:08:00.030Z,9.10
2024-05-09T01:10:01.900Z,9.10
2024-05-09T01:12:07.207Z,9.14
2024-05-09T01:14:11.698Z,9.07
2024-05-09T01:16:16.701Z,8.90
2024-05-09T01:18:21.523Z,8.98
2024-05-09T01:20:37.138Z,8.72
2024-05-09T01:22:47.461Z,8.88
2024-05-09T01:24:54.664Z,8.84
2024-05-09T01:26:59.109Z,8.73
2024-05-09T01:29:03.564Z,8.68
2024-05-09T01:31:08.284Z,8.73
2024-05-09T01:33:13.427Z,8.51
2024-05-09T01:35:23.191Z,8.77
2024-05-09T01:37:27.644Z,8.71
2024-05-09T01:39:32.315Z,8.73
2024-05-09T01:41:39.427Z,8.78
2024-05-09T01:43:43.958Z,8.65
2024-05-09T01:45:48.417Z,8.67
2024-05-09T01:47:53.152Z,8.55
2024-05-09T01:49:57.844Z,8.57
2024-05-09T01:52:02.372Z,8.63
2024-05-09T01:54:07.009Z,8.48
2024-05-09T01:56:12.665Z,8.63
2024-05-09T01:58:20.605Z,8.64
2024-05-09T02:00:36.655Z,8.63
2024-05-09T02:02:47.436Z,8.53
2024-05-09T02:04:52.475Z,8.33
2024-05-09T02:06:57.197Z,8.47
2024-05-09T02:09:01.741Z,8.49
2024-05-09T02:11:06.413Z,8.36
2024-05-09T02:13:10.822Z,8.38
2024-05-09T02:15:18.244Z,8.27
2024-05-09T02:17:23.040Z,8.24
2024-05-09T02:19:27.750Z,8.26
2024-05-09T02:21:34.179Z,8.24
2024-05-09T02:23:38.785Z,8.19
2024-05-09T02:25:44.155Z,8.16
2024-05-09T02:27:48.655Z,8.10
2024-05-09T02:29:53.081Z,8.12
2024-05-09T02:32:00.320Z,8.11
2024-05-09T02:34:02.444Z,8.10
2024-05-09T02:36:07.766Z,8.09
2024-05-09T02:38:10.026Z,8.07
2024-05-09T02:40:18.237Z,8.19
2024-05-09T02:42:23.582Z,8.20
2024-05-09T02:44:28.055Z,8.05
2024-05-09T02:46:29.902Z,8.00
2024-05-09T02:48:37.064Z,7.89
2024-05-09T02:50:40.570Z,7.98
2024-05-09T02:52:45.353Z,7.86
2024-05-09T02:54:47.163Z,7.78
2024-05-09T02:56:51.735Z,7.76
2024-05-09T02:58:53.616Z,7.82
2024-05-09T03:00:58.142Z,7.78
2024-05-09T03:03:00.210Z,7.61
2024-05-09T03:05:10.460Z,7.81
2024-05-09T03:07:12.322Z,7.66
2024-05-09T03:09:16.878Z,7.58
2024-05-09T03:11:22.516Z,7.61
2024-05-09T03:13:27.336Z,7.47
2024-05-09T03:15:32.256Z,7.55
2024-05-09T03:17:37.238Z,7.59
2024-05-09T03:19:39.192Z,7.58
2024-05-09T03:21:46.298Z,7.46
2024-05-09T03:23:48.243Z,7.48
2024-05-09T03:25:54.294Z,7.46
2024-05-09T03:27:56.586Z,7.49
2024-05-09T03:30:01.413Z,7.40
2024-05-09T03:32:03.655Z,7.48
2024-05-09T03:34:08.158Z,7.49
2024-05-09T03:36:11.399Z,7.31
2024-05-09T03:38:18.917Z,7.52
2024-05-09T03:40:24.007Z,7.33
2024-05-09T03:42:31.409Z,7.58
2024-05-09T03:44:33.314Z,7.38
2024-05-09T03:46:40.408Z,7.51
2024-05-09T03:48:42.363Z,7.54
2024-05-09T03:50:47.135Z,7.61
2024-05-09T03:52:49.303Z,7.63
2024-05-09T03:54:56.753Z,7.58
2024-05-09T03:56:58.624Z,7.31
2024-05-09T03:59:03.163Z,7.47
2024-05-09T04:01:05.308Z,7.64
2024-05-09T04:03:12.424Z,7.65
2024-05-09T04:05:15.287Z,7.76
2024-05-09T04:07:19.866Z,7.75
2024-05-09T04:09:21.785Z,7.73
2024-05-09T04:11:29.268Z,7.53
2024-05-09T04:13:31.239Z,7.85
2024-05-09T04:15:36.373Z,7.75
2024-05-09T04:17:39.423Z,7.68
2024-05-09T04:19:44.164Z,7.63
2024-05-09T04:21:46.108Z,7.61
2024-05-09T04:23:50.606Z,7.72
2024-05-09T04:25:52.601Z,7.73
2024-05-09T04:27:59.728Z,7.84
2024-05-09T04:30:01.900Z,7.92
2024-05-09T04:32:09.028Z,8.04
2024-05-09T04:34:11.175Z,8.11
2024-05-09T04:36:18.513Z,7.94
2024-05-09T04:38:21.058Z,8.10
2024-05-09T04:40:32.961Z,8.01
2024-05-09T04:42:40.645Z,8.23
2024-05-09T04:44:48.513Z,8.18
2024-05-09T04:46:50.435Z,8.14
2024-05-09T04:48:55.738Z,8.24
2024-05-09T04:50:58.522Z,8.51
2024-05-09T04:53:03.595Z,9.51
2024-05-09T04:55:06.428Z,11.90
2024-05-09T04:57:08.544Z,14.15
2024-05-09T04:59:13.137Z,15.27
2024-05-09T05:01:17.981Z,16.17
2024-05-09T05:03:23.143Z,16.47
2024-05-09T05:05:25.288Z,16.83
2024-05-09T05:07:29.772Z,17.87
2024-05-09T05:09:31.962Z,18.60
2024-05-09T05:11:36.888Z,18.02
2024-05-09T05:13:41.333Z,18.40
2024-05-09T05:15:43.882Z,16.16
2024-05-09T05:17:51.409Z,16.93
2024-05-09T05:19:54.229Z,18.01
2024-05-09T05:21:58.850Z,17.46
2024-05-09T05:24:03.714Z,18.27
2024-05-09T05:26:08.285Z,19.91
2024-05-09T05:28:10.432Z,20.72
2024-05-09T05:30:21.255Z,22.39
2024-05-09T05:32:27.390Z,21.11
2024-05-09T05:34:35.201Z,21.83
2024-05-09T05:36:38.468Z,22.60
2024-05-09T05:38:45.342Z,22.89
2024-05-09T05:40:49.890Z,21.71
2024-05-09T05:42:54.844Z,21.20
2024-05-09T05:44:56.872Z,19.58
2024-05-09T05:47:02.018Z,18.48
2024-05-09T05:49:04.615Z,17.81
2024-05-09T05:51:14.300Z,18.34
2024-05-09T05:53:16.604Z,18.60
2024-05-09T05:55:22.509Z,18.71
2024-05-09T05:57:24.569Z,18.54
2024-05-09T05:59:30.943Z,18.76
2024-05-09T06:01:32.933Z,17.97
2024-05-09T06:03:37.818Z,17.41
2024-05-09T06:05:40.949Z,18.50
2024-05-09T06:07:48.455Z,18.92
2024-05-09T06:09:50.608Z,16.86
2024-05-09T06:11:55.537Z,17.98
2024-05-09T06:13:57.921Z,18.34
2024-05-09T06:16:04.887Z,17.92
2024-05-09T06:18:11.141Z,18.38
2024-05-09T06:20:23.870Z,17.48
2024-05-09T06:22:33.605Z,17.23
2024-05-09T06:24:41.175Z,16.66
2024-05-09T06:26:46.394Z,17.09
2024-05-09T06:28:52.150Z,17.37
2024-05-09T06:30:54.326Z,17.23
2024-05-09T06:32:58.978Z,16.87
2024-05-09T06:35:00.945Z,16.53
2024-05-09T06:37:06.214Z,16.73
2024-05-09T06:39:18.829Z,17.12
2024-05-09T06:41:27.904Z,16.69
2024-05-09T06:43:30.001Z,16.19
2024-05-09T06:45:35.588Z,16.87
2024-05-09T06:47:37.660Z,17.26
2024-05-09T06:49:43.609Z,16.80
2024-05-09T06:51:47.038Z,17.41
2024-05-09T06:53:54.216Z,16.66
2024-05-09T06:55:56.499Z,17.06
2024-05-09T06:58:05.081Z,17.86
2024-05-09T07:00:15.478Z,17.78
2024-05-09T07:02:24.535Z,16.96
2024-05-09T07:04:26.737Z,17.69
2024-05-09T07:06:31.729Z,17.64
2024-05-09T07:08:34.085Z,17.36
2024-05-09T07:10:39.864Z,18.36
2024-05-09T07:12:41.878Z,18.33
2024-05-09T07:14:49.106Z,18.69
2024-05-09T07:16:51.537Z,19.03
2024-05-09T07:18:57.791Z,18.48
2024-05-09T07:21:01.048Z,18.54
2024-05-09T07:23:09.294Z,18.56
2024-05-09T07:25:11.195Z,18.59
2024-05-09T07:27:16.411Z,18.41
2024-05-09T07:29:18.564Z,18.10
2024-05-09T07:31:28.282Z,18.98
2024-05-09T07:33:31.862Z,19.68
2024-05-09T07:35:36.796Z,19.17
2024-05-09T07:37:40.973Z,19.62
2024-05-09T07:39:46.058Z,19.38
2024-05-09T07:41:48.025Z,19.80
2024-05-09T07:43:53.046Z,18.49
2024-05-09T07:53:33.921Z,18.05
2024-05-09T07:55:01.918Z,17.93
2024-05-09T07:57:07.486Z,18.08
2024-05-09T07:59:09.413Z,18.69
2024-05-09T08:01:14.316Z,18.70
2024-05-09T08:03:21.579Z,18.47
2024-05-09T08:05:26.416Z,18.22
2024-05-09T08:07:31.815Z,18.50
2024-05-09T08:09:38.679Z,18.52
2024-05-09T08:11:40.678Z,18.17
2024-05-09T08:13:45.506Z,17.63
2024-05-09T08:15:47.376Z,18.12
2024-05-09T08:17:52.752Z,17.88
2024-05-09T08:19:58.836Z,17.30
2024-05-09T08:22:07.143Z,17.50
2024-05-09T08:24:10.501Z,17.97
2024-05-09T08:26:19.417Z,18.39
2024-05-09T08:28:21.520Z,18.13
2024-05-09T08:30:33.400Z,17.99
2024-05-09T08:32:42.901Z,17.63
2024-05-09T08:34:48.358Z,17.61
2024-05-09T08:36:57.552Z,17.45
2024-05-09T08:39:03.466Z,17.73
2024-05-09T08:41:06.582Z,17.59
2024-05-09T08:43:13.027Z,17.29
2024-05-09T08:45:17.599Z,17.54
2024-05-09T08:47:26.805Z,17.49
2024-05-09T08:49:29.715Z,17.56
2024-05-09T08:51:35.238Z,17.30
2024-05-09T08:53:44.720Z,17.38
2024-05-09T08:55:51.016Z,17.96
2024-05-09T08:57:53.569Z,18.14
2024-05-09T09:00:00.690Z,18.28
2024-05-09T09:02:03.865Z,18.06
2024-05-09T09:04:09.226Z,17.95
2024-05-09T09:06:14.630Z,18.58
2024-05-09T09:08:19.416Z,18.74
2024-05-09T09:10:29.951Z,18.85
2024-05-09T09:12:37.094Z,18.79
2024-05-09T09:14:39.170Z,18.17
2024-05-09T09:16:46.335Z,18.60
2024-05-09T09:18:52.483Z,18.61
2024-05-09T09:20:58.790Z,18.48
2024-05-09T09:23:00.681Z,18.11
2024-05-09T09:25:05.946Z,18.22
2024-05-09T09:27:14.824Z,18.16
2024-05-09T09:29:23.358Z,18.08
2024-05-09T09:31:27.387Z,17.88
2024-05-09T09:33:33.239Z,18.15
2024-05-09T09:35:36.841Z,18.22
2024-05-09T09:37:43.201Z,18.29
2024-05-09T09:39:49.123Z,18.41
2024-05-09T09:41:55.050Z,18.42
2024-05-09T09:44:01.144Z,18.45
2024-05-09T09:46:09.718Z,18.81
2024-05-09T09:48:15.329Z,18.66
2024-05-09T09:50:27.551Z,18.22
2024-05-09T09:52:37.648Z,18.74
2024-05-09T09:54:43.950Z,18.89
2024-05-09T09:56:51.234Z,19.09
2024-05-09T09:58:56.152Z,18.85
2024-05-09T10:01:00.999Z,18.82
2024-05-09T10:03:17.144Z,18.74
2024-05-09T10:05:24.205Z,18.22
2024-05-09T10:07:39.894Z,18.41
2024-05-09T10:09:43.703Z,18.52
2024-05-09T10:11:52.353Z,19.00
2024-05-09T10:13:57.350Z,19.25
2024-05-09T10:16:13.753Z,19.19
2024-05-09T10:18:16.844Z,19.10
2024-05-09T10:20:28.165Z,19.30
2024-05-09T10:22:34.631Z,19.30
2024-05-09T10:24:50.868Z,18.75
2024-05-09T10:26:54.134Z,19.01
2024-05-09T10:28:58.779Z,18.85
2024-05-09T10:31:16.361Z,18.97
2024-05-09T10:33:20.824Z,18.61
2024-05-09T10:35:26.855Z,18.85
2024-05-09T10:37:30.678Z,18.69
2024-05-09T10:39:38.322Z,18.68
2024-05-09T10:41:41.035Z,18.51
2024-05-09T10:43:45.958Z,18.37
2024-05-09T10:45:49.476Z,18.83
2024-05-09T10:48:00.895Z,18.74
2024-05-09T10:50:07.880Z,18.64
2024-05-09T10:52:17.692Z,18.68
2024-05-09T10:54:19.651Z,19.05
2024-05-09T10:56:24.664Z,18.87
2024-05-09T10:58:27.522Z,18.89
2024-05-09T11:00:36.387Z,18.76
2024-05-09T11:02:38.970Z,18.95
2024-05-09T11:04:50.201Z,18.93
2024-05-09T11:06:52.315Z,19.27
2024-05-09T11:08:57.551Z,19.36
2024-05-09T11:11:00.249Z,19.56
2024-05-09T11:13:05.209Z,19.81
2024-05-09T11:15:07.389Z,19.94
2024-05-09T11:17:13.997Z,19.96
2024-05-09T11:19:18.523Z,20.06
2024-05-09T11:21:28.780Z,20.26
2024-05-09T11:23:31.752Z,20.32
2024-05-09T11:25:37.990Z,19.73
2024-05-09T11:27:44.095Z,19.71
2024-05-09T11:29:49.133Z,19.93
2024-05-09T11:31:51.204Z,19.60
2024-05-09T11:33:57.048Z,19.56
2024-05-09T11:35:59.427Z,19.74
2024-05-09T11:38:04.650Z,19.45
2024-05-09T11:40:17.084Z,19.35
2024-05-09T11:42:26.800Z,19.32
2024-05-09T11:44:31.375Z,19.62
2024-05-09T11:46:33.809Z,19.79
2024-05-09T11:48:38.994Z,19.88
2024-05-09T11:50:41.138Z,19.67
2024-05-09T11:52:45.973Z,19.20
2024-05-09T11:54:50.793Z,19.46
2024-05-09T11:56:56.475Z,19.77
2024-05-09T11:58:59.076Z,19.90
2024-05-09T12:01:04.572Z,20.14
2024-05-09T12:03:06.882Z,20.07
2024-05-09T12:05:10.120Z,20.12
2024-05-09T12:07:15.351Z,20.27
2024-05-09T12:09:17.569Z,20.52
2024-05-09T12:11:24.942Z,20.66
2024-05-09T12:13:28.064Z,20.76
2024-05-09T12:15:36.588Z,21.02
2024-05-09T12:17:39.702Z,20.63
2024-05-09T12:19:46.144Z,20.71
2024-05-09T12:21:48.664Z,20.57
2024-05-09T12:23:54.908Z,20.38
2024-05-09T12:25:57.158Z,20.37
2024-05-09T12:28:06.273Z,20.71
2024-05-09T12:30:14.193Z,20.45
2024-05-09T12:32:22.083Z,20.36
2024-05-09T12:34:24.517Z,19.88
2024-05-09T12:36:29.894Z,19.80
2024-05-09T12:38:32.356Z,20.10
2024-05-09T12:40:39.102Z,20.09
2024-05-09T12:42:41.982Z,20.39
2024-05-09T12:44:49.563Z,20.30
2024-05-09T12:46:53.937Z,20.00
2024-05-09T12:49:01.398Z,20.15
2024-05-09T12:51:06.438Z,20.33
2024-05-09T12:53:11.799Z,20.17
2024-05-09T12:55:14.219Z,20.55
2024-05-09T12:57:18.807Z,20.45
2024-05-09T12:59:21.130Z,19.88
2024-05-09T13:01:32.291Z,19.78
2024-05-09T13:03:35.378Z,20.19
2024-05-09T13:05:41.665Z,20.47
2024-05-09T13:07:44.061Z,20.68
2024-05-09T13:09:46.340Z,20.70
2024-05-09T13:11:51.464Z,20.89
2024-05-09T13:13:53.527Z,20.86
2024-05-09T13:15:58.391Z,20.57
2024-05-09T13:18:06.496Z,20.78
2024-05-09T13:20:19.042Z,20.79
2024-05-09T13:22:28.818Z,20.80
2024-05-09T13:24:36.586Z,20.76
2024-05-09T13:26:42.044Z,20.68
2024-05-09T13:28:53.515Z,20.63
2024-05-09T13:30:59.477Z,20.26
2024-05-09T13:33:08.289Z,20.87
2024-05-09T13:35:10.781Z,20.79
2024-05-09T13:37:15.399Z,21.08
2024-05-09T13:39:21.892Z,20.74
2024-05-09T13:41:27.318Z,21.06
2024-05-09T13:43:29.732Z,20.68
2024-05-09T13:45:34.766Z,20.72
2024-05-09T13:47:36.776Z,20.67
2024-05-09T13:49:44.120Z,20.74
2024-05-09T13:51:46.115Z,20.55
2024-05-09T13:53:54.750Z,20.73
2024-05-09T13:55:58.930Z,20.86
2024-05-09T13:58:04.224Z,21.05
2024-05-09T14:00:15.072Z,21.08
2024-05-09T14:02:28.035Z,21.05
2024-05-09T14:04:30.407Z,21.09
2024-05-09T14:06:44.128Z,21.05
2024-05-09T14:08:47.428Z,21.22
2024-05-09T14:10:52.810Z,21.23
2024-05-09T14:12:55.133Z,20.93
2024-05-09T14:14:59.778Z,20.91
2024-05-09T14:17:03.203Z,20.97
2024-05-09T14:19:08.536Z,21.01
2024-05-09T14:21:11.329Z,21.12
2024-05-09T14:23:20.269Z,21.08
2024-05-09T14:25:24.328Z,20.81
2024-05-09T14:27:32.234Z,20.56
2024-05-09T14:29:35.498Z,20.65
2024-05-09T14:31:40.335Z,20.77
2024-05-09T14:33:45.257Z,20.49
2024-05-09T14:35:50.631Z,20.43
2024-05-09T14:37:52.632Z,20.61
2024-05-09T14:40:00.047Z,20.79
2024-05-09T14:42:02.730Z,21.07
2024-05-09T14:44:12.700Z,20.87
2024-05-09T14:46:15.015Z,20.89
2024-05-09T14:48:20.467Z,20.95
2024-05-09T14:50:28.186Z,21.04
2024-05-09T14:52:39.915Z,21.10
2024-05-09T14:54:42.723Z,21.20
2024-05-09T14:56:51.619Z,21.12
2024-05-09T14:58:55.266Z,20.86
2024-05-09T15:01:01.091Z,20.94
2024-05-09T15:03:05.062Z,20.91
2024-05-09T15:05:11.792Z,20.78
2024-05-09T15:07:15.700Z,20.83
2024-05-09T15:09:20.379Z,20.74
2024-05-09T15:11:24.336Z,21.06
2024-05-09T15:13:31.715Z,20.87
2024-05-09T15:15:34.167Z,20.92
2024-05-09T15:17:39.413Z,20.99
2024-05-09T15:19:42.148Z,20.70
2024-05-09T15:21:44.869Z,21.04
2024-05-09T15:23:49.360Z,21.22
2024-05-09T15:25:51.698Z,21.11
2024-05-09T15:27:56.536Z,21.40
2024-05-09T15:30:05.633Z,21.17
2024-05-09T15:32:20.298Z,21.12
2024-05-09T15:34:25.182Z,21.04
2024-05-09T15:36:30.104Z,20.52
2024-05-09T15:38:33.781Z,20.40
2024-05-09T15:40:40.784Z,20.76
2024-05-09T15:42:43.774Z,20.99
2024-05-09T15:44:53.783Z,20.95
2024-05-09T15:46:58.781Z,21.25
2024-05-09T15:49:03.735Z,20.87
2024-05-09T15:51:07.400Z,20.72
2024-05-09T15:53:10.381Z,20.80
2024-05-09T15:55:17.422Z,20.99
2024-05-09T15:57:19.690Z,21.01
2024-05-09T15:59:24.210Z,21.11
2024-05-09T16:01:27.608Z,21.18
2024-05-09T16:03:35.120Z,21.10
2024-05-09T16:05:38.207Z,21.00
2024-05-09T16:07:43.472Z,20.80
2024-05-09T16:09:47.823Z,20.99
2024-05-09T16:11:52.938Z,20.68
2024-05-09T16:13:56.111Z,20.74
2024-05-09T16:16:01.996Z,20.43
2024-05-09T16:18:04.420Z,20.28
2024-05-09T16:20:14.968Z,20.36
2024-05-09T16:22:22.836Z,20.37
2024-05-09T16:24:24.691Z,20.42
2024-05-09T16:26:29.345Z,20.49
2024-05-09T16:28:31.422Z,20.61
2024-05-09T16:30:36.665Z,20.43
2024-05-09T16:32:46.180Z,20.40
2024-05-09T16:34:51.080Z,20.28
2024-05-09T16:36:55.672Z,20.08
2024-05-09T16:39:00.371Z,20.23
2024-05-09T16:41:03.279Z,20.02
2024-05-09T16:43:08.391Z,20.02
2024-05-09T16:45:12.279Z,19.91
2024-05-09T16:47:16.875Z,19.89
2024-05-09T16:49:19.019Z,19.77
2024-05-09T16:51:23.461Z,19.75
2024-05-09T16:53:28.084Z,19.90
2024-05-09T16:55:33.084Z,19.94
2024-05-09T16:57:35.119Z,19.80
2024-05-09T16:59:39.627Z,19.82
2024-05-09T17:01:41.520Z,19.71
2024-05-09T17:03:46.333Z,19.69
2024-05-09T17:05:50.402Z,19.64
2024-05-09T17:07:55.072Z,19.53
2024-05-09T17:09:59.677Z,19.73
2024-05-09T17:12:05.663Z,19.58
2024-05-09T17:14:07.500Z,19.62
2024-05-09T17:16:13.488Z,19.48
2024-05-09T17:18:15.849Z,19.34
2024-05-09T17:20:29.363Z,19.31
2024-05-09T17:22:35.704Z,19.48
2024-05-09T17:24:40.450Z,19.46
2024-05-09T17:26:46.847Z,19.42
2024-05-09T17:28:51.377Z,19.21
2024-05-09T17:30:55.625Z,19.22
2024-05-09T17:33:00.670Z,19.20
2024-05-09T17:35:05.568Z,19.13
2024-05-09T17:37:10.226Z,19.22
2024-05-09T17:39:12.717Z,19.03
2024-05-09T17:41:14.814Z,19.12
2024-05-09T17:43:22.436Z,19.11
2024-05-09T17:45:24.559Z,19.12
2024-05-09T17:47:29.293Z,19.07
2024-05-09T17:49:31.308Z,19.02
2024-05-09T17:51:35.947Z,18.94
2024-05-09T17:53:39.982Z,19.02
2024-05-09T17:55:44.908Z,19.04
2024-05-09T17:57:46.806Z,18.90
2024-05-09T17:59:54.011Z,19.06
2024-05-09T18:01:55.960Z,19.03
2024-05-09T18:04:00.728Z,18.96
2024-05-09T18:06:02.695Z,18.81
2024-05-09T18:08:08.359Z,18.81
2024-05-09T18:10:16.032Z,18.75
2024-05-09T18:12:26.788Z,18.76
2024-05-09T18:14:29.298Z,18.50
2024-05-09T18:16:36.640Z,18.67
2024-05-09T18:18:38.629Z,18.69
2024-05-09T18:20:45.668Z,18.61
2024-05-09T18:22:48.192Z,18.56
2024-05-09T18:24:53.312Z,18.41
2024-05-09T18:26:55.301Z,18.36
2024-05-09T18:28:59.790Z,18.33
2024-05-09T18:31:01.656Z,18.34
2024-05-09T18:33:09.794Z,18.17
2024-05-09T18:35:12.214Z,18.23
2024-05-09T18:37:16.927Z,18.19
2024-05-09T18:39:19.162Z,18.09
2024-05-09T18:41:23.542Z,18.17
2024-05-09T18:43:31.148Z,18.19
2024-05-09T18:45:38.124Z,18.08
2024-05-09T18:47:43.389Z,17.96
2024-05-09T18:49:47.858Z,17.98
2024-05-09T18:51:52.653Z,17.86
2024-05-09T18:53:55.205Z,17.93
2024-05-09T18:55:59.662Z,17.92
2024-05-09T18:58:01.605Z,17.89
2024-05-09T19:00:08.725Z,17.84
2024-05-09T19:02:13.025Z,17.75
2024-05-09T19:04:18.983Z,17.69
2024-05-09T19:06:24.846Z,17.66
2024-05-09T19:08:29.775Z,17.69
2024-05-09T19:10:34.666Z,17.64
2024-05-09T19:12:41.419Z,17.64
2024-05-09T19:14:43.354Z,17.49
2024-05-09T19:16:47.849Z,17.51
2024-05-09T19:18:51.349Z,17.46
2024-05-09T19:20:58.267Z,17.38
2024-05-09T19:23:02.894Z,17.32
2024-05-09T19:25:08.234Z,17.30
2024-05-09T19:27:10.458Z,17.18
2024-05-09T19:29:14.906Z,17.23
2024-05-09T19:31:16.786Z,17.23
2024-05-09T19:33:21.228Z,17.04
2024-05-09T19:35:23.102Z,17.13
2024-05-09T19:37:28.740Z,17.16
2024-05-09T19:39:33.217Z,17.09
2024-05-09T19:41:37.935Z,16.80
2024-05-09T19:43:39.932Z,17.04
2024-05-09T19:45:44.785Z,16.95
2024-05-09T19:47:47.040Z,16.86
2024-05-09T19:49:51.574Z,16.90
2024-05-09T19:51:53.493Z,16.92
2024-05-09T19:53:55.330Z,16.82
2024-05-09T19:56:02.452Z,16.80
2024-05-09T19:58:06.973Z,16.75
2024-05-09T20:00:21.484Z,16.64
2024-05-09T20:02:24.334Z,16.66
2024-05-09T20:04:29.282Z,16.49
2024-05-09T20:06:31.385Z,16.59
2024-05-09T20:08:35.866Z,16.48
2024-05-09T20:10:38.059Z,16.40
2024-05-09T20:12:45.254Z,16.44
2024-05-09T20:14:47.116Z,16.35
2024-05-09T20:16:52.033Z,16.17
2024-05-09T20:18:54.093Z,16.19
2024-05-09T20:21:00.066Z,16.13
2024-05-09T20:23:01.935Z,16.10
2024-05-09T20:25:07.138Z,16.03
2024-05-09T20:27:08.984Z,15.93
2024-05-09T20:29:16.179Z,15.93
2024-05-09T20:31:20.607Z,15.90
2024-05-09T20:33:22.560Z,15.92
2024-05-09T20:35:27.335Z,15.76
2024-05-09T20:37:29.250Z,15.65
2024-05-09T20:39:33.662Z,15.57
2024-05-09T20:41:41.150Z,15.67
2024-05-09T20:43:45.922Z,15.47
2024-05-09T20:45:51.819Z,15.55
2024-05-09T20:47:57.633Z,15.39
2024-05-09T20:49:59.815Z,15.42
2024-05-09T20:52:04.614Z,15.49
2024-05-09T20:54:06.457Z,15.45
2024-05-09T20:56:11.069Z,15.42
2024-05-09T20:58:13.430Z,15.42
2024-05-09T21:00:19.429Z,15.45
2024-05-09T21:02:30.810Z,15.29
2024-05-09T21:04:35.977Z,15.26
2024-05-09T21:06:37.937Z,15.27
2024-05-09T21:08:42.382Z,15.25
2024-05-09T21:10:44.645Z,15.40
2024-05-09T21:12:46.548Z,15.37
2024-05-09T21:14:51.003Z,15.21
2024-05-09T21:16:53.193Z,15.24
2024-05-09T21:19:00.434Z,15.23
2024-05-09T21:21:02.279Z,15.14
2024-05-09T21:23:07.204Z,15.13
2024-05-09T21:25:09.149Z,15.11
2024-05-09T21:27:13.935Z,15.04
2024-05-09T21:29:16.040Z,14.95
2024-05-09T21:31:20.481Z,14.91
2024-05-09T21:33:22.383Z,14.94
2024-05-09T21:35:32.218Z,14.90
2024-05-09T21:37:34.113Z,14.83
2024-05-09T21:39:39.260Z,14.74
2024-05-09T21:41:41.086Z,14.80
2024-05-09T21:43:45.523Z,14.71
2024-05-09T21:45:47.462Z,14.53
2024-05-09T21:47:52.081Z,14.62
2024-05-09T21:49:54.096Z,14.49
2024-05-09T21:52:01.171Z,14.44
2024-05-09T21:54:03.001Z,14.53
2024-05-09T21:56:09.361Z,14.47
2024-05-09T21:58:11.881Z,14.29
2024-05-09T22:00:28.474Z,14.42
2024-05-09T22:02:36.996Z,14.48
2024-05-09T22:04:41.798Z,14.57
2024-05-09T22:06:43.689Z,14.51
2024-05-09T22:08:51.073Z,14.51
2024-05-09T22:10:52.957Z,14.50
2024-05-09T22:12:57.530Z,14.25
2024-05-09T22:14:59.370Z,14.22
2024-05-09T22:17:04.241Z,14.29
2024-05-09T22:19:06.327Z,14.29
2024-05-09T22:21:12.025Z,14.18
2024-05-09T22:23:14.895Z,14.10
2024-05-09T22:25:22.429Z,14.10
2024-05-09T22:27:24.672Z,14.12
2024-05-09T22:29:29.738Z,13.99
2024-05-09T22:31:31.628Z,14.05
2024-05-09T22:33:36.610Z,13.78
2024-05-09T22:35:38.727Z,14.04
2024-05-09T22:37:43.484Z,14.05
2024-05-09T22:39:45.465Z,13.93
2024-05-09T22:41:53.059Z,14.00
2024-05-09T22:43:54.869Z,14.04
2024-05-09T22:45:59.749Z,13.93
2024-05-09T22:48:01.995Z,14.09
2024-05-09T22:50:10.727Z,13.86
2024-05-09T22:52:14.868Z,13.90
2024-05-09T22:54:19.720Z,13.93
2024-05-09T22:56:26.564Z,14.05
2024-05-09T22:58:36.572Z,14.04
2024-05-09T23:00:38.664Z,14.01
2024-05-09T23:02:45.784Z,14.10
2024-05-09T23:04:48.055Z,14.08
2024-05-09T23:06:54.050Z,13.70
2024-05-09T23:08:55.840Z,13.83
2024-05-09T23:11:00.660Z,13.77
2024-05-09T23:13:03.220Z,13.89
2024-05-09T23:15:11.025Z,13.88
2024-05-09T23:17:13.187Z,13.79
2024-05-09T23:19:17.736Z,13.81
2024-05-09T23:21:19.504Z,13.74
2024-05-09T23:23:23.909Z,13.71
2024-05-09T23:25:25.777Z,13.77
2024-05-09T23:27:30.458Z,13.75
2024-05-09T23:29:32.527Z,13.74
2024-05-09T23:31:41.479Z,13.71
2024-05-09T23:33:45.796Z,13.67
2024-05-09T23:35:50.371Z,13.69
2024-05-09T23:37:52.231Z,13.66
2024-05-09T23:39:56.714Z,13.67
2024-05-09T23:41:58.504Z,13.52
2024-05-09T23:44:05.476Z,13.60
2024-05-09T23:46:07.327Z,13.62
2024-05-09T23:48:14.451Z,13.61
2024-05-09T23:50:20.854Z,13.59
2024-05-09T23:52:31.165Z,13.55
2024-05-09T23:54:33.052Z,13.52
2024-05-09T23:56:37.623Z,13.49
2024-05-09T23:58:39.411Z,13.52
